sensor_id;sensor_type;location;lat;lon;timestamp;P1;durP1;ratioP1;P2;durP2;ratioP2
41201;SDS011;26936;50.524;8.684;2023-03-16T00:01:37;13.20;;;6.50;;
41201;SDS011;26936;50.524;8.684;2023-03-16T00:04:03;14.60;;;6.38;;
41201;SDS011;26936;50.524;8.684;2023-03-16T00:06:28;17.90;;;7.22;;
41201;SDS011;26936;50.524;8.684;2023-03-16T00:08:53;12.80;;;5.60;;
41201;SDS011;26936;50.524;8.684;2023-03-16T00:11:24;13.75;;;6.07;;
41201;SDS011;26936;50.524;8.684;2023-03-16T00:13:50;26.63;;;7.57;;
41201;SDS011;26936;50.524;8.684;2023-03-16T00:16:16;10.85;;;5.93;;
41201;SDS011;26936;50.524;8.684;2023-03-16T00:18:41;10.23;;;5.88;;
41201;SDS011;26936;50.524;8.684;2023-03-16T00:21:06;10.10;;;6.13;;
41201;SDS011;26936;50.524;8.684;2023-03-16T00:23:32;12.20;;;5.50;;
41201;SDS011;26936;50.524;8.684;2023-03-16T00:26:03;10.20;;;5.38;;
41201;SDS011;26936;50.524;8.684;2023-03-16T00:28:31;12.82;;;5.90;;
41201;SDS011;26936;50.524;8.684;2023-03-16T00:30:59;11.73;;;5.70;;
41201;SDS011;26936;50.524;8.684;2023-03-16T00:33:28;11.52;;;5.60;;
41201;SDS011;26936;50.524;8.684;2023-03-16T00:35:53;12.43;;;5.32;;
41201;SDS011;26936;50.524;8.684;2023-03-16T00:38:26;10.90;;;5.72;;
41201;SDS011;26936;50.524;8.684;2023-03-16T00:40:53;9.60;;;5.00;;
41201;SDS011;26936;50.524;8.684;2023-03-16T00:43:18;9.75;;;5.10;;
41201;SDS011;26936;50.524;8.684;2023-03-16T00:45:44;10.23;;;5.15;;
41201;SDS011;26936;50.524;8.684;2023-03-16T00:48:10;10.45;;;5.07;;
41201;SDS011;26936;50.524;8.684;2023-03-16T00:50:36;10.70;;;5.10;;
41201;SDS011;26936;50.524;8.684;2023-03-16T00:53:02;8.02;;;4.90;;
41201;SDS011;26936;50.524;8.684;2023-03-16T00:55:27;9.27;;;5.68;;
41201;SDS011;26936;50.524;8.684;2023-03-16T00:57:52;8.93;;;4.95;;
41201;SDS011;26936;50.524;8.684;2023-03-16T01:00:18;9.75;;;4.80;;
41201;SDS011;26936;50.524;8.684;2023-03-16T01:02:45;10.73;;;4.72;;
41201;SDS011;26936;50.524;8.684;2023-03-16T01:05:11;13.88;;;5.43;;
41201;SDS011;26936;50.524;8.684;2023-03-16T01:07:38;10.07;;;5.57;;
41201;SDS011;26936;50.524;8.684;2023-03-16T01:10:04;12.10;;;5.93;;
41201;SDS011;26936;50.524;8.684;2023-03-16T01:12:30;11.52;;;5.78;;
41201;SDS011;26936;50.524;8.684;2023-03-16T01:14:55;12.20;;;5.78;;
41201;SDS011;26936;50.524;8.684;2023-03-16T01:17:20;12.25;;;5.60;;
41201;SDS011;26936;50.524;8.684;2023-03-16T01:19:46;9.32;;;4.95;;
41201;SDS011;26936;50.524;8.684;2023-03-16T01:22:12;10.02;;;5.85;;
41201;SDS011;26936;50.524;8.684;2023-03-16T01:24:39;11.27;;;5.60;;
41201;SDS011;26936;50.524;8.684;2023-03-16T01:27:06;10.73;;;5.68;;
41201;SDS011;26936;50.524;8.684;2023-03-16T01:29:32;11.98;;;5.90;;
41201;SDS011;26936;50.524;8.684;2023-03-16T01:31:58;8.15;;;4.85;;
41201;SDS011;26936;50.524;8.684;2023-03-16T01:34:23;11.13;;;5.43;;
41201;SDS011;26936;50.524;8.684;2023-03-16T01:36:49;11.68;;;5.75;;
41201;SDS011;26936;50.524;8.684;2023-03-16T01:39:15;9.98;;;5.85;;
41201;SDS011;26936;50.524;8.684;2023-03-16T01:41:41;10.63;;;5.90;;
41201;SDS011;26936;50.524;8.684;2023-03-16T01:44:14;10.65;;;5.47;;
41201;SDS011;26936;50.524;8.684;2023-03-16T01:46:42;12.00;;;5.60;;
41201;SDS011;26936;50.524;8.684;2023-03-16T01:51:42;13.70;;;5.97;;
41201;SDS011;26936;50.524;8.684;2023-03-16T01:54:20;12.77;;;5.43;;
41201;SDS011;26936;50.524;8.684;2023-03-16T01:56:51;12.82;;;5.75;;
41201;SDS011;26936;50.524;8.684;2023-03-16T02:02:12;12.63;;;6.50;;
41201;SDS011;26936;50.524;8.684;2023-03-16T02:07:45;13.40;;;5.68;;
41201;SDS011;26936;50.524;8.684;2023-03-16T02:10:13;11.93;;;5.65;;
41201;SDS011;26936;50.524;8.684;2023-03-16T02:12:40;12.55;;;5.72;;
41201;SDS011;26936;50.524;8.684;2023-03-16T02:15:07;14.18;;;6.15;;
41201;SDS011;26936;50.524;8.684;2023-03-16T02:17:33;12.77;;;6.50;;
41201;SDS011;26936;50.524;8.684;2023-03-16T02:22:45;13.38;;;7.03;;
41201;SDS011;26936;50.524;8.684;2023-03-16T02:25:13;15.68;;;7.60;;
41201;SDS011;26936;50.524;8.684;2023-03-16T02:27:45;13.70;;;7.35;;
41201;SDS011;26936;50.524;8.684;2023-03-16T02:30:18;15.30;;;7.70;;
41201;SDS011;26936;50.524;8.684;2023-03-16T02:32:44;15.13;;;7.90;;
41201;SDS011;26936;50.524;8.684;2023-03-16T02:35:12;13.32;;;7.25;;
41201;SDS011;26936;50.524;8.684;2023-03-16T02:37:38;15.32;;;7.30;;
41201;SDS011;26936;50.524;8.684;2023-03-16T02:40:24;17.60;;;7.35;;
41201;SDS011;26936;50.524;8.684;2023-03-16T02:42:57;16.23;;;8.15;;
41201;SDS011;26936;50.524;8.684;2023-03-16T02:45:34;14.27;;;7.15;;
41201;SDS011;26936;50.524;8.684;2023-03-16T02:48:08;14.30;;;7.78;;
41201;SDS011;26936;50.524;8.684;2023-03-16T02:50:42;21.33;;;8.98;;
41201;SDS011;26936;50.524;8.684;2023-03-16T02:53:11;16.27;;;8.10;;
41201;SDS011;26936;50.524;8.684;2023-03-16T02:55:37;15.20;;;7.70;;
41201;SDS011;26936;50.524;8.684;2023-03-16T02:58:02;17.38;;;7.60;;
41201;SDS011;26936;50.524;8.684;2023-03-16T03:00:27;15.43;;;7.32;;
41201;SDS011;26936;50.524;8.684;2023-03-16T03:02:53;16.35;;;7.45;;
41201;SDS011;26936;50.524;8.684;2023-03-16T03:05:19;14.15;;;7.55;;
41201;SDS011;26936;50.524;8.684;2023-03-16T03:07:45;13.55;;;7.90;;
41201;SDS011;26936;50.524;8.684;2023-03-16T03:10:10;19.10;;;9.10;;
41201;SDS011;26936;50.524;8.684;2023-03-16T03:12:35;17.00;;;8.25;;
41201;SDS011;26936;50.524;8.684;2023-03-16T03:15:01;15.98;;;8.20;;
41201;SDS011;26936;50.524;8.684;2023-03-16T03:17:26;19.92;;;8.88;;
41201;SDS011;26936;50.524;8.684;2023-03-16T03:19:54;13.68;;;7.75;;
41201;SDS011;26936;50.524;8.684;2023-03-16T03:22:21;15.48;;;8.30;;
41201;SDS011;26936;50.524;8.684;2023-03-16T03:24:46;18.42;;;7.68;;
41201;SDS011;26936;50.524;8.684;2023-03-16T03:27:11;13.07;;;7.05;;
41201;SDS011;26936;50.524;8.684;2023-03-16T03:29:36;13.38;;;7.20;;
41201;SDS011;26936;50.524;8.684;2023-03-16T03:32:03;13.23;;;7.18;;
41201;SDS011;26936;50.524;8.684;2023-03-16T03:34:29;13.50;;;8.02;;
41201;SDS011;26936;50.524;8.684;2023-03-16T03:36:55;14.15;;;7.22;;
41201;SDS011;26936;50.524;8.684;2023-03-16T03:39:21;16.33;;;7.38;;
41201;SDS011;26936;50.524;8.684;2023-03-16T03:41:48;13.43;;;7.00;;
41201;SDS011;26936;50.524;8.684;2023-03-16T03:44:13;18.80;;;8.43;;
41201;SDS011;26936;50.524;8.684;2023-03-16T03:46:38;16.80;;;8.30;;
41201;SDS011;26936;50.524;8.684;2023-03-16T03:49:03;14.70;;;7.20;;
41201;SDS011;26936;50.524;8.684;2023-03-16T03:51:30;13.60;;;7.60;;
41201;SDS011;26936;50.524;8.684;2023-03-16T03:53:56;12.35;;;7.07;;
41201;SDS011;26936;50.524;8.684;2023-03-16T03:56:22;15.05;;;8.25;;
41201;SDS011;26936;50.524;8.684;2023-03-16T03:58:47;14.50;;;7.78;;
41201;SDS011;26936;50.524;8.684;2023-03-16T04:01:13;14.38;;;7.53;;
41201;SDS011;26936;50.524;8.684;2023-03-16T04:03:38;15.27;;;6.82;;
41201;SDS011;26936;50.524;8.684;2023-03-16T04:06:03;16.67;;;7.43;;
41201;SDS011;26936;50.524;8.684;2023-03-16T04:08:31;11.65;;;7.57;;
41201;SDS011;26936;50.524;8.684;2023-03-16T04:10:56;14.93;;;7.35;;
41201;SDS011;26936;50.524;8.684;2023-03-16T04:13:22;16.35;;;7.57;;
41201;SDS011;26936;50.524;8.684;2023-03-16T04:15:47;15.43;;;7.70;;
41201;SDS011;26936;50.524;8.684;2023-03-16T04:18:13;16.20;;;7.70;;
41201;SDS011;26936;50.524;8.684;2023-03-16T04:20:38;17.58;;;8.20;;
41201;SDS011;26936;50.524;8.684;2023-03-16T04:23:03;15.27;;;7.82;;
41201;SDS011;26936;50.524;8.684;2023-03-16T04:25:29;15.35;;;8.20;;
41201;SDS011;26936;50.524;8.684;2023-03-16T04:27:54;11.88;;;7.43;;
41201;SDS011;26936;50.524;8.684;2023-03-16T04:30:20;13.48;;;7.00;;
41201;SDS011;26936;50.524;8.684;2023-03-16T04:32:47;16.08;;;7.93;;
41201;SDS011;26936;50.524;8.684;2023-03-16T04:35:12;14.85;;;7.05;;
41201;SDS011;26936;50.524;8.684;2023-03-16T04:37:39;14.38;;;7.97;;
41201;SDS011;26936;50.524;8.684;2023-03-16T04:40:05;14.73;;;7.55;;
41201;SDS011;26936;50.524;8.684;2023-03-16T04:42:36;12.15;;;6.97;;
41201;SDS011;26936;50.524;8.684;2023-03-16T04:45:01;14.35;;;7.32;;
41201;SDS011;26936;50.524;8.684;2023-03-16T04:47:27;13.60;;;6.85;;
41201;SDS011;26936;50.524;8.684;2023-03-16T04:49:54;17.27;;;7.55;;
41201;SDS011;26936;50.524;8.684;2023-03-16T04:52:19;15.32;;;7.85;;
41201;SDS011;26936;50.524;8.684;2023-03-16T04:54:45;13.82;;;7.07;;
41201;SDS011;26936;50.524;8.684;2023-03-16T04:57:10;14.80;;;7.60;;
41201;SDS011;26936;50.524;8.684;2023-03-16T04:59:35;18.75;;;8.30;;
41201;SDS011;26936;50.524;8.684;2023-03-16T05:02:00;18.17;;;8.68;;
41201;SDS011;26936;50.524;8.684;2023-03-16T05:04:26;17.83;;;8.75;;
41201;SDS011;26936;50.524;8.684;2023-03-16T05:06:52;15.23;;;8.30;;
41201;SDS011;26936;50.524;8.684;2023-03-16T05:09:17;14.35;;;7.90;;
41201;SDS011;26936;50.524;8.684;2023-03-16T05:11:44;14.85;;;8.18;;
41201;SDS011;26936;50.524;8.684;2023-03-16T05:14:09;16.73;;;8.68;;
41201;SDS011;26936;50.524;8.684;2023-03-16T05:16:35;17.23;;;8.40;;
41201;SDS011;26936;50.524;8.684;2023-03-16T05:19:00;18.45;;;8.38;;
41201;SDS011;26936;50.524;8.684;2023-03-16T05:21:26;21.13;;;9.10;;
41201;SDS011;26936;50.524;8.684;2023-03-16T05:23:52;18.20;;;9.25;;
41201;SDS011;26936;50.524;8.684;2023-03-16T05:26:17;18.27;;;9.00;;
41201;SDS011;26936;50.524;8.684;2023-03-16T05:28:43;20.17;;;9.65;;
41201;SDS011;26936;50.524;8.684;2023-03-16T05:31:09;15.48;;;8.57;;
41201;SDS011;26936;50.524;8.684;2023-03-16T05:33:34;19.20;;;9.32;;
41201;SDS011;26936;50.524;8.684;2023-03-16T05:36:00;17.05;;;9.35;;
41201;SDS011;26936;50.524;8.684;2023-03-16T05:38:26;16.35;;;8.93;;
41201;SDS011;26936;50.524;8.684;2023-03-16T05:40:52;15.35;;;8.35;;
41201;SDS011;26936;50.524;8.684;2023-03-16T05:43:18;17.73;;;9.05;;
41201;SDS011;26936;50.524;8.684;2023-03-16T05:45:45;16.70;;;8.50;;
41201;SDS011;26936;50.524;8.684;2023-03-16T05:48:10;17.13;;;8.50;;
41201;SDS011;26936;50.524;8.684;2023-03-16T05:50:36;14.85;;;8.43;;
41201;SDS011;26936;50.524;8.684;2023-03-16T05:53:01;16.75;;;8.73;;
41201;SDS011;26936;50.524;8.684;2023-03-16T05:55:27;21.42;;;9.52;;
41201;SDS011;26936;50.524;8.684;2023-03-16T05:57:53;21.38;;;9.27;;
41201;SDS011;26936;50.524;8.684;2023-03-16T06:00:18;16.60;;;9.20;;
41201;SDS011;26936;50.524;8.684;2023-03-16T06:02:45;19.70;;;8.90;;
41201;SDS011;26936;50.524;8.684;2023-03-16T06:05:12;16.75;;;8.35;;
41201;SDS011;26936;50.524;8.684;2023-03-16T06:07:38;20.33;;;9.40;;
41201;SDS011;26936;50.524;8.684;2023-03-16T06:10:04;19.38;;;9.50;;
41201;SDS011;26936;50.524;8.684;2023-03-16T06:12:30;17.90;;;8.43;;
41201;SDS011;26936;50.524;8.684;2023-03-16T06:14:55;20.67;;;9.43;;
41201;SDS011;26936;50.524;8.684;2023-03-16T06:17:20;16.80;;;8.20;;
41201;SDS011;26936;50.524;8.684;2023-03-16T06:19:45;15.80;;;8.93;;
41201;SDS011;26936;50.524;8.684;2023-03-16T06:22:11;17.77;;;9.23;;
41201;SDS011;26936;50.524;8.684;2023-03-16T06:24:37;14.43;;;8.38;;
41201;SDS011;26936;50.524;8.684;2023-03-16T06:27:02;18.07;;;9.43;;
41201;SDS011;26936;50.524;8.684;2023-03-16T06:29:28;16.05;;;7.63;;
41201;SDS011;26936;50.524;8.684;2023-03-16T06:31:53;15.75;;;8.25;;
41201;SDS011;26936;50.524;8.684;2023-03-16T06:34:19;17.70;;;7.70;;
41201;SDS011;26936;50.524;8.684;2023-03-16T06:36:44;14.10;;;6.85;;
41201;SDS011;26936;50.524;8.684;2023-03-16T06:39:09;13.75;;;7.15;;
41201;SDS011;26936;50.524;8.684;2023-03-16T06:41:35;13.40;;;6.90;;
41201;SDS011;26936;50.524;8.684;2023-03-16T06:44:00;12.68;;;6.68;;
41201;SDS011;26936;50.524;8.684;2023-03-16T06:46:26;12.60;;;6.45;;
41201;SDS011;26936;50.524;8.684;2023-03-16T06:48:52;16.85;;;7.85;;
41201;SDS011;26936;50.524;8.684;2023-03-16T06:51:17;14.30;;;6.35;;
41201;SDS011;26936;50.524;8.684;2023-03-16T06:53:42;9.17;;;5.57;;
41201;SDS011;26936;50.524;8.684;2023-03-16T06:56:07;13.73;;;7.07;;
41201;SDS011;26936;50.524;8.684;2023-03-16T06:58:33;12.15;;;6.28;;
41201;SDS011;26936;50.524;8.684;2023-03-16T07:01:02;16.02;;;6.30;;
41201;SDS011;26936;50.524;8.684;2023-03-16T07:03:28;12.02;;;6.30;;
41201;SDS011;26936;50.524;8.684;2023-03-16T07:05:54;11.30;;;6.15;;
41201;SDS011;26936;50.524;8.684;2023-03-16T07:08:19;10.75;;;6.50;;
41201;SDS011;26936;50.524;8.684;2023-03-16T07:10:44;8.85;;;5.88;;
41201;SDS011;26936;50.524;8.684;2023-03-16T07:13:09;9.13;;;4.45;;
41201;SDS011;26936;50.524;8.684;2023-03-16T07:15:35;6.88;;;4.63;;
41201;SDS011;26936;50.524;8.684;2023-03-16T07:18:00;8.23;;;4.15;;
41201;SDS011;26936;50.524;8.684;2023-03-16T07:20:26;8.13;;;4.85;;
41201;SDS011;26936;50.524;8.684;2023-03-16T07:22:52;6.55;;;4.50;;
41201;SDS011;26936;50.524;8.684;2023-03-16T07:25:18;7.30;;;4.57;;
41201;SDS011;26936;50.524;8.684;2023-03-16T07:27:43;8.65;;;5.47;;
41201;SDS011;26936;50.524;8.684;2023-03-16T07:30:10;8.70;;;4.43;;
41201;SDS011;26936;50.524;8.684;2023-03-16T07:32:38;7.03;;;4.28;;
41201;SDS011;26936;50.524;8.684;2023-03-16T07:35:03;7.00;;;4.10;;
41201;SDS011;26936;50.524;8.684;2023-03-16T07:37:29;5.63;;;3.88;;
41201;SDS011;26936;50.524;8.684;2023-03-16T07:39:54;7.28;;;3.90;;
41201;SDS011;26936;50.524;8.684;2023-03-16T07:42:20;7.05;;;4.20;;
41201;SDS011;26936;50.524;8.684;2023-03-16T07:44:46;7.50;;;4.25;;
41201;SDS011;26936;50.524;8.684;2023-03-16T07:47:12;7.00;;;4.43;;
41201;SDS011;26936;50.524;8.684;2023-03-16T07:49:37;7.32;;;4.13;;
41201;SDS011;26936;50.524;8.684;2023-03-16T07:52:03;7.18;;;4.30;;
41201;SDS011;26936;50.524;8.684;2023-03-16T07:54:28;8.48;;;4.28;;
41201;SDS011;26936;50.524;8.684;2023-03-16T07:56:54;6.13;;;3.92;;
41201;SDS011;26936;50.524;8.684;2023-03-16T07:59:19;6.90;;;4.45;;
41201;SDS011;26936;50.524;8.684;2023-03-16T08:01:45;7.07;;;4.20;;
41201;SDS011;26936;50.524;8.684;2023-03-16T08:04:10;8.70;;;4.53;;
41201;SDS011;26936;50.524;8.684;2023-03-16T08:06:36;7.93;;;4.60;;
41201;SDS011;26936;50.524;8.684;2023-03-16T08:09:01;7.85;;;4.45;;
41201;SDS011;26936;50.524;8.684;2023-03-16T08:11:27;7.90;;;4.68;;
41201;SDS011;26936;50.524;8.684;2023-03-16T08:13:52;8.95;;;4.32;;
41201;SDS011;26936;50.524;8.684;2023-03-16T08:16:27;8.52;;;4.25;;
41201;SDS011;26936;50.524;8.684;2023-03-16T08:18:55;7.90;;;4.35;;
41201;SDS011;26936;50.524;8.684;2023-03-16T08:21:21;8.02;;;4.32;;
41201;SDS011;26936;50.524;8.684;2023-03-16T08:23:46;8.80;;;4.75;;
41201;SDS011;26936;50.524;8.684;2023-03-16T08:26:16;9.35;;;4.38;;
41201;SDS011;26936;50.524;8.684;2023-03-16T08:28:42;6.10;;;4.47;;
41201;SDS011;26936;50.524;8.684;2023-03-16T08:31:10;7.60;;;3.97;;
41201;SDS011;26936;50.524;8.684;2023-03-16T08:33:36;7.85;;;4.30;;
41201;SDS011;26936;50.524;8.684;2023-03-16T08:36:04;8.77;;;4.43;;
41201;SDS011;26936;50.524;8.684;2023-03-16T08:38:30;7.57;;;4.38;;
41201;SDS011;26936;50.524;8.684;2023-03-16T08:40:56;7.95;;;4.55;;
41201;SDS011;26936;50.524;8.684;2023-03-16T08:43:22;7.78;;;4.20;;
41201;SDS011;26936;50.524;8.684;2023-03-16T08:45:47;8.20;;;4.55;;
41201;SDS011;26936;50.524;8.684;2023-03-16T08:48:13;8.73;;;4.57;;
41201;SDS011;26936;50.524;8.684;2023-03-16T08:50:39;6.80;;;4.60;;
41201;SDS011;26936;50.524;8.684;2023-03-16T08:53:07;8.30;;;4.53;;
41201;SDS011;26936;50.524;8.684;2023-03-16T08:55:33;9.00;;;4.55;;
41201;SDS011;26936;50.524;8.684;2023-03-16T08:57:59;9.45;;;4.97;;
41201;SDS011;26936;50.524;8.684;2023-03-16T09:00:25;6.35;;;4.25;;
41201;SDS011;26936;50.524;8.684;2023-03-16T09:02:52;7.55;;;4.20;;
41201;SDS011;26936;50.524;8.684;2023-03-16T09:05:19;6.80;;;4.15;;
41201;SDS011;26936;50.524;8.684;2023-03-16T09:07:45;6.60;;;4.53;;
41201;SDS011;26936;50.524;8.684;2023-03-16T09:10:11;8.02;;;4.82;;
41201;SDS011;26936;50.524;8.684;2023-03-16T09:12:39;7.50;;;4.10;;
41201;SDS011;26936;50.524;8.684;2023-03-16T09:15:06;7.10;;;3.80;;
41201;SDS011;26936;50.524;8.684;2023-03-16T09:17:34;5.70;;;4.05;;
41201;SDS011;26936;50.524;8.684;2023-03-16T09:20:00;5.80;;;4.07;;
41201;SDS011;26936;50.524;8.684;2023-03-16T09:22:26;5.60;;;3.90;;
41201;SDS011;26936;50.524;8.684;2023-03-16T09:24:52;6.28;;;4.15;;
41201;SDS011;26936;50.524;8.684;2023-03-16T09:27:17;5.88;;;3.80;;
41201;SDS011;26936;50.524;8.684;2023-03-16T09:29:44;6.20;;;3.97;;
41201;SDS011;26936;50.524;8.684;2023-03-16T09:32:09;5.38;;;3.83;;
41201;SDS011;26936;50.524;8.684;2023-03-16T09:34:35;7.57;;;4.22;;
41201;SDS011;26936;50.524;8.684;2023-03-16T09:37:01;6.82;;;4.00;;
41201;SDS011;26936;50.524;8.684;2023-03-16T09:39:26;7.07;;;4.18;;
41201;SDS011;26936;50.524;8.684;2023-03-16T09:41:58;7.20;;;4.50;;
41201;SDS011;26936;50.524;8.684;2023-03-16T09:45:05;5.50;;;3.92;;
41201;SDS011;26936;50.524;8.684;2023-03-16T09:47:39;7.22;;;4.50;;
41201;SDS011;26936;50.524;8.684;2023-03-16T09:50:07;6.63;;;4.15;;
41201;SDS011;26936;50.524;8.684;2023-03-16T09:55:24;5.60;;;3.50;;
41201;SDS011;26936;50.524;8.684;2023-03-16T09:57:55;4.95;;;3.65;;
41201;SDS011;26936;50.524;8.684;2023-03-16T10:01:10;7.28;;;4.03;;
41201;SDS011;26936;50.524;8.684;2023-03-16T10:03:53;6.65;;;3.90;;
41201;SDS011;26936;50.524;8.684;2023-03-16T10:06:14;6.93;;;3.90;;
41201;SDS011;26936;50.524;8.684;2023-03-16T10:08:44;6.15;;;4.03;;
41201;SDS011;26936;50.524;8.684;2023-03-16T10:13:47;7.43;;;4.10;;
41201;SDS011;26936;50.524;8.684;2023-03-16T10:16:33;5.82;;;4.00;;
41201;SDS011;26936;50.524;8.684;2023-03-16T10:20:06;6.35;;;3.78;;
41201;SDS011;26936;50.524;8.684;2023-03-16T10:22:14;6.45;;;3.95;;
41201;SDS011;26936;50.524;8.684;2023-03-16T10:24:55;7.15;;;4.40;;
41201;SDS011;26936;50.524;8.684;2023-03-16T10:27:27;6.60;;;4.18;;
41201;SDS011;26936;50.524;8.684;2023-03-16T10:30:09;5.03;;;3.80;;
41201;SDS011;26936;50.524;8.684;2023-03-16T10:32:38;6.28;;;4.38;;
41201;SDS011;26936;50.524;8.684;2023-03-16T10:35:15;6.50;;;4.50;;
41201;SDS011;26936;50.524;8.684;2023-03-16T10:37:49;6.40;;;3.92;;
41201;SDS011;26936;50.524;8.684;2023-03-16T10:40:15;5.28;;;4.07;;
41201;SDS011;26936;50.524;8.684;2023-03-16T10:42:44;7.05;;;3.97;;
41201;SDS011;26936;50.524;8.684;2023-03-16T10:48:17;5.82;;;4.00;;
41201;SDS011;26936;50.524;8.684;2023-03-16T10:50:49;6.38;;;3.97;;
41201;SDS011;26936;50.524;8.684;2023-03-16T10:53:19;6.53;;;3.80;;
41201;SDS011;26936;50.524;8.684;2023-03-16T10:55:47;6.38;;;4.00;;
41201;SDS011;26936;50.524;8.684;2023-03-16T10:58:32;5.20;;;3.80;;
41201;SDS011;26936;50.524;8.684;2023-03-16T11:00:59;5.55;;;3.70;;
41201;SDS011;26936;50.524;8.684;2023-03-16T11:03:26;5.07;;;3.42;;
41201;SDS011;26936;50.524;8.684;2023-03-16T11:06:05;6.40;;;3.90;;
41201;SDS011;26936;50.524;8.684;2023-03-16T11:08:40;5.28;;;3.88;;
41201;SDS011;26936;50.524;8.684;2023-03-16T11:11:09;5.95;;;3.90;;
41201;SDS011;26936;50.524;8.684;2023-03-16T11:13:57;6.18;;;3.75;;
41201;SDS011;26936;50.524;8.684;2023-03-16T11:19:11;5.13;;;3.22;;
41201;SDS011;26936;50.524;8.684;2023-03-16T11:22:04;6.18;;;3.80;;
41201;SDS011;26936;50.524;8.684;2023-03-16T11:24:51;5.53;;;3.80;;
41201;SDS011;26936;50.524;8.684;2023-03-16T11:27:25;6.53;;;3.70;;
41201;SDS011;26936;50.524;8.684;2023-03-16T11:30:08;5.55;;;3.33;;
41201;SDS011;26936;50.524;8.684;2023-03-16T11:32:39;5.38;;;3.75;;
41201;SDS011;26936;50.524;8.684;2023-03-16T11:37:49;5.28;;;3.63;;
41201;SDS011;26936;50.524;8.684;2023-03-16T11:45:40;6.32;;;3.92;;
41201;SDS011;26936;50.524;8.684;2023-03-16T11:48:23;5.70;;;3.92;;
41201;SDS011;26936;50.524;8.684;2023-03-16T11:53:45;5.95;;;3.72;;
41201;SDS011;26936;50.524;8.684;2023-03-16T11:56:25;7.50;;;4.45;;
41201;SDS011;26936;50.524;8.684;2023-03-16T11:59:00;6.70;;;3.90;;
41201;SDS011;26936;50.524;8.684;2023-03-16T12:01:43;6.65;;;4.28;;
41201;SDS011;26936;50.524;8.684;2023-03-16T12:04:41;6.72;;;4.50;;
41201;SDS011;26936;50.524;8.684;2023-03-16T12:07:21;7.28;;;4.60;;
41201;SDS011;26936;50.524;8.684;2023-03-16T12:18:26;7.43;;;4.72;;
41201;SDS011;26936;50.524;8.684;2023-03-16T12:21:06;7.25;;;4.90;;
41201;SDS011;26936;50.524;8.684;2023-03-16T12:23:42;7.85;;;4.32;;
41201;SDS011;26936;50.524;8.684;2023-03-16T12:26:20;7.22;;;4.20;;
41201;SDS011;26936;50.524;8.684;2023-03-16T12:28:49;7.10;;;4.45;;
41201;SDS011;26936;50.524;8.684;2023-03-16T12:31:18;6.15;;;4.28;;
41201;SDS011;26936;50.524;8.684;2023-03-16T12:34:01;5.95;;;3.70;;
41201;SDS011;26936;50.524;8.684;2023-03-16T12:42:23;9.68;;;4.70;;
41201;SDS011;26936;50.524;8.684;2023-03-16T12:45:02;6.25;;;4.03;;
41201;SDS011;26936;50.524;8.684;2023-03-16T12:50:24;6.35;;;3.88;;
41201;SDS011;26936;50.524;8.684;2023-03-16T12:52:50;6.82;;;4.35;;
41201;SDS011;26936;50.524;8.684;2023-03-16T12:55:38;6.93;;;4.28;;
41201;SDS011;26936;50.524;8.684;2023-03-16T12:58:08;10.18;;;5.05;;
41201;SDS011;26936;50.524;8.684;2023-03-16T13:00:36;7.45;;;4.47;;
41201;SDS011;26936;50.524;8.684;2023-03-16T13:03:10;7.53;;;4.47;;
41201;SDS011;26936;50.524;8.684;2023-03-16T13:05:43;6.28;;;4.20;;
41201;SDS011;26936;50.524;8.684;2023-03-16T13:08:15;7.20;;;4.47;;
41201;SDS011;26936;50.524;8.684;2023-03-16T13:10:57;8.60;;;4.80;;
41201;SDS011;26936;50.524;8.684;2023-03-16T13:13:28;7.13;;;4.40;;
41201;SDS011;26936;50.524;8.684;2023-03-16T13:18:38;9.32;;;5.18;;
41201;SDS011;26936;50.524;8.684;2023-03-16T13:21:18;6.85;;;4.55;;
41201;SDS011;26936;50.524;8.684;2023-03-16T13:23:52;6.68;;;4.22;;
41201;SDS011;26936;50.524;8.684;2023-03-16T13:26:40;6.78;;;4.07;;
41201;SDS011;26936;50.524;8.684;2023-03-16T13:31:48;6.90;;;4.75;;
41201;SDS011;26936;50.524;8.684;2023-03-16T13:34:14;12.68;;;6.85;;
41201;SDS011;26936;50.524;8.684;2023-03-16T13:36:48;8.70;;;4.90;;
41201;SDS011;26936;50.524;8.684;2023-03-16T13:44:21;6.90;;;4.22;;
41201;SDS011;26936;50.524;8.684;2023-03-16T13:46:48;7.07;;;4.53;;
41201;SDS011;26936;50.524;8.684;2023-03-16T13:49:14;6.88;;;4.60;;
41201;SDS011;26936;50.524;8.684;2023-03-16T13:51:40;6.53;;;4.35;;
41201;SDS011;26936;50.524;8.684;2023-03-16T13:54:15;6.70;;;4.50;;
41201;SDS011;26936;50.524;8.684;2023-03-16T13:56:45;8.00;;;4.43;;
41201;SDS011;26936;50.524;8.684;2023-03-16T13:59:11;6.80;;;4.25;;
41201;SDS011;26936;50.524;8.684;2023-03-16T14:01:37;7.60;;;4.47;;
41201;SDS011;26936;50.524;8.684;2023-03-16T14:04:05;8.25;;;5.30;;
41201;SDS011;26936;50.524;8.684;2023-03-16T14:06:37;8.75;;;4.55;;
41201;SDS011;26936;50.524;8.684;2023-03-16T14:09:05;6.72;;;4.68;;
41201;SDS011;26936;50.524;8.684;2023-03-16T14:11:39;7.07;;;4.65;;
41201;SDS011;26936;50.524;8.684;2023-03-16T14:14:13;5.90;;;4.28;;
41201;SDS011;26936;50.524;8.684;2023-03-16T14:16:40;6.88;;;4.18;;
41201;SDS011;26936;50.524;8.684;2023-03-16T14:19:17;8.25;;;4.40;;
41201;SDS011;26936;50.524;8.684;2023-03-16T14:21:46;7.30;;;4.75;;
41201;SDS011;26936;50.524;8.684;2023-03-16T14:24:24;9.00;;;4.68;;
41201;SDS011;26936;50.524;8.684;2023-03-16T14:26:53;7.13;;;4.57;;
41201;SDS011;26936;50.524;8.684;2023-03-16T14:31:54;6.30;;;4.75;;
41201;SDS011;26936;50.524;8.684;2023-03-16T14:34:25;6.53;;;4.40;;
41201;SDS011;26936;50.524;8.684;2023-03-16T14:37:11;7.25;;;4.65;;
41201;SDS011;26936;50.524;8.684;2023-03-16T14:39:38;7.65;;;4.80;;
41201;SDS011;26936;50.524;8.684;2023-03-16T14:42:04;7.55;;;4.78;;
41201;SDS011;26936;50.524;8.684;2023-03-16T14:44:38;6.30;;;4.47;;
41201;SDS011;26936;50.524;8.684;2023-03-16T14:47:04;8.68;;;4.65;;
41201;SDS011;26936;50.524;8.684;2023-03-16T14:49:31;6.40;;;4.38;;
41201;SDS011;26936;50.524;8.684;2023-03-16T14:52:00;6.45;;;4.30;;
41201;SDS011;26936;50.524;8.684;2023-03-16T14:54:28;7.68;;;4.50;;
41201;SDS011;26936;50.524;8.684;2023-03-16T14:56:57;6.97;;;4.43;;
41201;SDS011;26936;50.524;8.684;2023-03-16T14:59:24;7.10;;;4.38;;
41201;SDS011;26936;50.524;8.684;2023-03-16T15:01:50;6.75;;;4.47;;
41201;SDS011;26936;50.524;8.684;2023-03-16T15:04:18;9.70;;;4.40;;
41201;SDS011;26936;50.524;8.684;2023-03-16T15:06:48;9.38;;;4.63;;
41201;SDS011;26936;50.524;8.684;2023-03-16T15:09:18;6.82;;;4.20;;
41201;SDS011;26936;50.524;8.684;2023-03-16T15:11:52;6.50;;;4.30;;
41201;SDS011;26936;50.524;8.684;2023-03-16T15:14:19;7.10;;;4.32;;
41201;SDS011;26936;50.524;8.684;2023-03-16T15:17:05;7.22;;;4.25;;
41201;SDS011;26936;50.524;8.684;2023-03-16T15:19:30;6.25;;;3.90;;
41201;SDS011;26936;50.524;8.684;2023-03-16T15:21:56;6.32;;;4.03;;
41201;SDS011;26936;50.524;8.684;2023-03-16T15:24:24;6.40;;;3.95;;
41201;SDS011;26936;50.524;8.684;2023-03-16T15:26:50;7.85;;;3.80;;
41201;SDS011;26936;50.524;8.684;2023-03-16T15:29:16;5.07;;;3.72;;
41201;SDS011;26936;50.524;8.684;2023-03-16T15:31:43;6.10;;;4.05;;
41201;SDS011;26936;50.524;8.684;2023-03-16T15:34:08;6.43;;;4.20;;
41201;SDS011;26936;50.524;8.684;2023-03-16T15:36:34;7.70;;;4.35;;
41201;SDS011;26936;50.524;8.684;2023-03-16T15:38:59;5.88;;;3.63;;
41201;SDS011;26936;50.524;8.684;2023-03-16T15:41:26;7.13;;;4.28;;
41201;SDS011;26936;50.524;8.684;2023-03-16T15:43:51;9.88;;;4.90;;
41201;SDS011;26936;50.524;8.684;2023-03-16T15:46:16;7.07;;;4.97;;
41201;SDS011;26936;50.524;8.684;2023-03-16T15:48:42;7.70;;;4.40;;
41201;SDS011;26936;50.524;8.684;2023-03-16T15:51:13;7.75;;;4.60;;
41201;SDS011;26936;50.524;8.684;2023-03-16T15:53:54;7.53;;;5.00;;